Mc Crory, Arkansas
Current Conditions -  °F | °C
As of 2:18 PM on Friday 21 Nov 2014 (Local Time) from KM19 Reporting Station
Light Rain Light Rain  
Wind Chill: 40°   Ceiling: 600
Heat Index: 45°   Visibility: 3mi
Dew Point: 43°   Wind: 8mph
Humidity: 93%   Direction: 90°E
Pressure: 30.3"   Gusts: NA
Location:  35.2562°N, 91.1949°W
Report Text: KM19 212018Z AUTO 09007KT 3SM -RA BR OVC006 07/06 A3030 RMK AO2 CIG 004V009 P0001
Loading
Personal Weather Stations






























Interactive Weather Map New forecast layout! Learn more

10-Day Weather Forecast

Advertisements
Track Severe Weather on mobile